sensor_id;sensor_type;location;lat;lon;timestamp;pressure;altitude;pressure_sealevel;temperature;humidity
50682;BME280;36779;52.168;20.878;2023-05-25T00:02:10;100852.40;;;12.91;60.08
50682;BME280;36779;52.168;20.878;2023-05-25T00:04:42;100854.29;;;12.92;60.20
50682;BME280;36779;52.168;20.878;2023-05-25T00:07:15;100852.38;;;12.97;60.55
50682;BME280;36779;52.168;20.878;2023-05-25T00:09:45;100848.83;;;12.99;60.56
50682;BME280;36779;52.168;20.878;2023-05-25T00:12:14;100847.30;;;12.98;60.31
50682;BME280;36779;52.168;20.878;2023-05-25T00:14:43;100847.34;;;12.98;60.36
50682;BME280;36779;52.168;20.878;2023-05-25T00:17:13;100847.57;;;12.99;60.68
50682;BME280;36779;52.168;20.878;2023-05-25T00:19:47;100848.44;;;12.99;60.55
50682;BME280;36779;52.168;20.878;2023-05-25T00:22:16;100852.03;;;12.93;60.43
50682;BME280;36779;52.168;20.878;2023-05-25T00:24:45;100854.73;;;12.93;60.63
50682;BME280;36779;52.168;20.878;2023-05-25T00:27:14;100858.40;;;12.95;60.72
50682;BME280;36779;52.168;20.878;2023-05-25T00:29:42;100856.63;;;12.94;60.65
50682;BME280;36779;52.168;20.878;2023-05-25T00:32:13;100857.27;;;12.94;60.90
50682;BME280;36779;52.168;20.878;2023-05-25T00:34:42;100852.85;;;12.96;60.98
50682;BME280;36779;52.168;20.878;2023-05-25T00:37:12;100858.92;;;12.92;60.57
50682;BME280;36779;52.168;20.878;2023-05-25T00:39:42;100856.36;;;12.90;60.82
50682;BME280;36779;52.168;20.878;2023-05-25T00:42:11;100855.75;;;12.89;60.79
50682;BME280;36779;52.168;20.878;2023-05-25T00:44:40;100860.20;;;12.90;60.90
50682;BME280;36779;52.168;20.878;2023-05-25T00:47:10;100864.65;;;12.92;60.86
50682;BME280;36779;52.168;20.878;2023-05-25T00:49:41;100861.84;;;12.95;60.83
50682;BME280;36779;52.168;20.878;2023-05-25T00:52:11;100866.10;;;12.97;61.10
50682;BME280;36779;52.168;20.878;2023-05-25T00:54:40;100870.55;;;12.97;61.09
50682;BME280;36779;52.168;20.878;2023-05-25T00:57:11;100871.11;;;12.97;61.07
50682;BME280;36779;52.168;20.878;2023-05-25T00:59:47;100872.89;;;13.02;61.35
50682;BME280;36779;52.168;20.878;2023-05-25T01:02:19;100874.94;;;13.01;61.29
50682;BME280;36779;52.168;20.878;2023-05-25T01:04:56;100871.31;;;13.02;61.13
50682;BME280;36779;52.168;20.878;2023-05-25T01:07:32;100871.55;;;13.03;61.33
50682;BME280;36779;52.168;20.878;2023-05-25T01:10:09;100869.08;;;12.99;61.30
50682;BME280;36779;52.168;20.878;2023-05-25T01:12:41;100871.71;;;12.94;61.25
50682;BME280;36779;52.168;20.878;2023-05-25T01:15:16;100870.27;;;12.93;61.34
50682;BME280;36779;52.168;20.878;2023-05-25T01:17:45;100868.14;;;12.91;61.41
50682;BME280;36779;52.168;20.878;2023-05-25T01:20:16;100870.46;;;12.89;61.25
50682;BME280;36779;52.168;20.878;2023-05-25T01:22:50;100871.84;;;12.90;61.60
50682;BME280;36779;52.168;20.878;2023-05-25T01:25:26;100874.35;;;12.91;61.30
50682;BME280;36779;52.168;20.878;2023-05-25T01:28:01;100874.20;;;12.89;61.45
50682;BME280;36779;52.168;20.878;2023-05-25T01:30:32;100876.15;;;12.90;61.50
50682;BME280;36779;52.168;20.878;2023-05-25T01:33:04;100877.84;;;12.92;61.45
50682;BME280;36779;52.168;20.878;2023-05-25T01:35:36;100879.00;;;12.93;61.68
50682;BME280;36779;52.168;20.878;2023-05-25T01:38:07;100877.83;;;12.99;61.93
50682;BME280;36779;52.168;20.878;2023-05-25T01:40:37;100878.52;;;13.06;62.00
50682;BME280;36779;52.168;20.878;2023-05-25T01:43:06;100877.84;;;13.10;61.99
50682;BME280;36779;52.168;20.878;2023-05-25T01:45:36;100877.34;;;13.15;61.92
50682;BME280;36779;52.168;20.878;2023-05-25T01:48:12;100876.75;;;13.14;61.72
50682;BME280;36779;52.168;20.878;2023-05-25T01:50:53;100871.16;;;13.13;61.74
50682;BME280;36779;52.168;20.878;2023-05-25T01:53:28;100873.90;;;13.15;62.07
50682;BME280;36779;52.168;20.878;2023-05-25T01:56:00;100877.34;;;13.20;61.95
50682;BME280;36779;52.168;20.878;2023-05-25T01:58:34;100869.38;;;13.25;62.23
50682;BME280;36779;52.168;20.878;2023-05-25T02:01:04;100862.95;;;13.26;62.07
50682;BME280;36779;52.168;20.878;2023-05-25T02:03:37;100861.80;;;13.28;62.21
50682;BME280;36779;52.168;20.878;2023-05-25T02:06:08;100860.53;;;13.29;62.16
50682;BME280;36779;52.168;20.878;2023-05-25T02:08:37;100860.38;;;13.30;62.11
50682;BME280;36779;52.168;20.878;2023-05-25T02:11:06;100864.33;;;13.30;62.27
50682;BME280;36779;52.168;20.878;2023-05-25T02:13:37;100866.05;;;13.27;62.15
50682;BME280;36779;52.168;20.878;2023-05-25T02:16:07;100861.61;;;13.29;62.19
50682;BME280;36779;52.168;20.878;2023-05-25T02:18:36;100862.05;;;13.28;62.15
50682;BME280;36779;52.168;20.878;2023-05-25T02:21:08;100863.36;;;13.22;62.19
50682;BME280;36779;52.168;20.878;2023-05-25T02:23:38;100861.05;;;13.17;62.19
50682;BME280;36779;52.168;20.878;2023-05-25T02:26:08;100868.55;;;13.14;62.21
50682;BME280;36779;52.168;20.878;2023-05-25T02:28:38;100871.53;;;13.09;62.35
50682;BME280;36779;52.168;20.878;2023-05-25T02:31:07;100871.98;;;13.04;62.29
50682;BME280;36779;52.168;20.878;2023-05-25T02:33:36;100879.30;;;13.02;62.28
50682;BME280;36779;52.168;20.878;2023-05-25T02:36:07;100879.78;;;13.01;62.16
50682;BME280;36779;52.168;20.878;2023-05-25T02:38:36;100883.73;;;13.01;62.39
50682;BME280;36779;52.168;20.878;2023-05-25T02:41:08;100881.05;;;12.99;62.34
50682;BME280;36779;52.168;20.878;2023-05-25T02:43:38;100884.42;;;13.01;62.36
50682;BME280;36779;52.168;20.878;2023-05-25T02:46:07;100880.41;;;13.02;62.36
50682;BME280;36779;52.168;20.878;2023-05-25T02:48:36;100884.07;;;13.01;62.33
50682;BME280;36779;52.168;20.878;2023-05-25T02:51:05;100890.27;;;13.03;62.57
50682;BME280;36779;52.168;20.878;2023-05-25T02:53:34;100888.12;;;13.06;62.71
50682;BME280;36779;52.168;20.878;2023-05-25T02:56:06;100884.80;;;13.06;62.38
50682;BME280;36779;52.168;20.878;2023-05-25T02:58:37;100877.77;;;13.03;62.44
50682;BME280;36779;52.168;20.878;2023-05-25T03:01:11;100877.20;;;13.02;62.44
50682;BME280;36779;52.168;20.878;2023-05-25T03:03:48;100876.73;;;13.01;62.68
50682;BME280;36779;52.168;20.878;2023-05-25T03:06:20;100878.37;;;12.99;62.45
50682;BME280;36779;52.168;20.878;2023-05-25T03:08:56;100880.21;;;12.99;62.85
50682;BME280;36779;52.168;20.878;2023-05-25T03:11:25;100876.70;;;13.01;62.76
50682;BME280;36779;52.168;20.878;2023-05-25T03:14:00;100875.66;;;13.04;63.01
50682;BME280;36779;52.168;20.878;2023-05-25T03:16:29;100878.98;;;13.05;62.85
50682;BME280;36779;52.168;20.878;2023-05-25T03:19:04;100880.32;;;13.04;62.96
50682;BME280;36779;52.168;20.878;2023-05-25T03:21:34;100883.57;;;13.01;62.81
50682;BME280;36779;52.168;20.878;2023-05-25T03:24:06;100888.02;;;13.01;62.87
50682;BME280;36779;52.168;20.878;2023-05-25T03:26:35;100887.17;;;12.97;62.95
50682;BME280;36779;52.168;20.878;2023-05-25T03:29:05;100891.41;;;12.94;62.72
50682;BME280;36779;52.168;20.878;2023-05-25T03:31:37;100897.53;;;12.95;63.11
50682;BME280;36779;52.168;20.878;2023-05-25T03:34:11;100901.86;;;13.00;63.02
50682;BME280;36779;52.168;20.878;2023-05-25T03:36:41;100906.50;;;13.03;62.91
50682;BME280;36779;52.168;20.878;2023-05-25T03:39:13;100907.44;;;13.03;63.08
50682;BME280;36779;52.168;20.878;2023-05-25T03:41:41;100910.19;;;13.02;63.08
50682;BME280;36779;52.168;20.878;2023-05-25T03:44:11;100911.54;;;13.03;62.94
50682;BME280;36779;52.168;20.878;2023-05-25T03:46:50;100916.23;;;12.97;62.98
50682;BME280;36779;52.168;20.878;2023-05-25T03:49:20;100917.59;;;12.92;63.10
50682;BME280;36779;52.168;20.878;2023-05-25T03:51:51;100916.42;;;12.88;63.12
50682;BME280;36779;52.168;20.878;2023-05-25T03:54:23;100915.56;;;12.90;63.12
50682;BME280;36779;52.168;20.878;2023-05-25T03:56:52;100915.16;;;12.90;63.31
50682;BME280;36779;52.168;20.878;2023-05-25T03:59:42;100907.73;;;12.91;63.04
50682;BME280;36779;52.168;20.878;2023-05-25T04:02:19;100906.43;;;12.95;63.25
50682;BME280;36779;52.168;20.878;2023-05-25T04:04:51;100907.64;;;13.01;63.49
50682;BME280;36779;52.168;20.878;2023-05-25T04:07:22;100909.42;;;13.07;63.41
50682;BME280;36779;52.168;20.878;2023-05-25T04:09:52;100919.60;;;13.17;63.34
50682;BME280;36779;52.168;20.878;2023-05-25T04:12:22;100924.33;;;13.23;63.49
50682;BME280;36779;52.168;20.878;2023-05-25T04:14:57;100929.59;;;13.27;63.60
50682;BME280;36779;52.168;20.878;2023-05-25T04:17:27;100924.80;;;13.33;63.65
50682;BME280;36779;52.168;20.878;2023-05-25T04:19:59;100930.09;;;13.36;63.40
50682;BME280;36779;52.168;20.878;2023-05-25T04:22:38;100935.21;;;13.36;63.23
50682;BME280;36779;52.168;20.878;2023-05-25T04:25:10;100936.92;;;13.38;63.40
50682;BME280;36779;52.168;20.878;2023-05-25T04:27:40;100939.63;;;13.38;63.24
50682;BME280;36779;52.168;20.878;2023-05-25T04:30:14;100937.86;;;13.33;63.50
50682;BME280;36779;52.168;20.878;2023-05-25T04:33:02;100935.35;;;13.37;63.52
50682;BME280;36779;52.168;20.878;2023-05-25T04:35:56;100935.39;;;13.41;63.67
50682;BME280;36779;52.168;20.878;2023-05-25T04:38:33;100933.88;;;13.46;63.66
50682;BME280;36779;52.168;20.878;2023-05-25T04:41:02;100932.70;;;13.50;63.82
50682;BME280;36779;52.168;20.878;2023-05-25T04:43:35;100931.44;;;13.53;63.60
50682;BME280;36779;52.168;20.878;2023-05-25T04:46:04;100933.95;;;13.56;63.56
50682;BME280;36779;52.168;20.878;2023-05-25T04:48:38;100935.88;;;13.58;63.81
50682;BME280;36779;52.168;20.878;2023-05-25T04:51:11;100938.45;;;13.62;63.66
50682;BME280;36779;52.168;20.878;2023-05-25T04:53:45;100940.52;;;13.64;63.80
50682;BME280;36779;52.168;20.878;2023-05-25T04:56:16;100938.22;;;13.64;63.76
50682;BME280;36779;52.168;20.878;2023-05-25T04:58:49;100936.34;;;13.65;63.51
50682;BME280;36779;52.168;20.878;2023-05-25T05:01:24;100935.00;;;13.66;63.61
50682;BME280;36779;52.168;20.878;2023-05-25T05:03:54;100933.20;;;13.69;63.64
50682;BME280;36779;52.168;20.878;2023-05-25T05:06:25;100932.75;;;13.72;63.69
50682;BME280;36779;52.168;20.878;2023-05-25T05:08:59;100934.33;;;13.72;63.57
50682;BME280;36779;52.168;20.878;2023-05-25T05:11:41;100934.63;;;13.73;63.71
50682;BME280;36779;52.168;20.878;2023-05-25T05:14:14;100937.30;;;13.69;63.60
50682;BME280;36779;52.168;20.878;2023-05-25T05:16:49;100939.33;;;13.69;63.53
50682;BME280;36779;52.168;20.878;2023-05-25T05:19:18;100936.32;;;13.64;63.43
50682;BME280;36779;52.168;20.878;2023-05-25T05:21:52;100938.89;;;13.65;63.63
50682;BME280;36779;52.168;20.878;2023-05-25T05:24:25;100938.25;;;13.72;63.91
50682;BME280;36779;52.168;20.878;2023-05-25T05:26:54;100943.34;;;13.78;63.91
50682;BME280;36779;52.168;20.878;2023-05-25T05:29:56;100944.10;;;13.80;63.98
50682;BME280;36779;52.168;20.878;2023-05-25T05:32:25;100950.39;;;13.82;63.79
50682;BME280;36779;52.168;20.878;2023-05-25T05:34:56;100947.82;;;13.82;63.84
50682;BME280;36779;52.168;20.878;2023-05-25T05:38:00;100947.64;;;13.84;63.89
50682;BME280;36779;52.168;20.878;2023-05-25T05:40:29;100953.00;;;13.87;63.76
50682;BME280;36779;52.168;20.878;2023-05-25T05:43:06;100953.66;;;13.91;63.94
50682;BME280;36779;52.168;20.878;2023-05-25T05:45:35;100956.41;;;13.95;63.92
50682;BME280;36779;52.168;20.878;2023-05-25T05:48:04;100959.96;;;13.97;63.74
50682;BME280;36779;52.168;20.878;2023-05-25T05:50:37;100965.05;;;14.01;63.94
50682;BME280;36779;52.168;20.878;2023-05-25T05:53:10;100963.80;;;14.04;63.77
50682;BME280;36779;52.168;20.878;2023-05-25T05:55:39;100961.96;;;14.02;63.81
50682;BME280;36779;52.168;20.878;2023-05-25T05:58:08;100962.73;;;14.03;64.02
50682;BME280;36779;52.168;20.878;2023-05-25T06:00:37;100962.27;;;14.07;64.20
50682;BME280;36779;52.168;20.878;2023-05-25T06:03:08;100967.89;;;14.12;64.07
50682;BME280;36779;52.168;20.878;2023-05-25T06:05:37;100967.83;;;14.16;63.85
50682;BME280;36779;52.168;20.878;2023-05-25T06:08:07;100971.34;;;14.20;64.23
50682;BME280;36779;52.168;20.878;2023-05-25T06:10:38;100972.05;;;14.25;63.90
50682;BME280;36779;52.168;20.878;2023-05-25T06:13:08;100973.52;;;14.29;64.08
50682;BME280;36779;52.168;20.878;2023-05-25T06:15:40;100977.97;;;14.34;64.00
50682;BME280;36779;52.168;20.878;2023-05-25T06:18:12;100982.30;;;14.39;64.20
50682;BME280;36779;52.168;20.878;2023-05-25T06:20:42;100989.10;;;14.42;63.86
50682;BME280;36779;52.168;20.878;2023-05-25T06:23:14;100992.11;;;14.42;63.91
50682;BME280;36779;52.168;20.878;2023-05-25T06:25:45;100997.59;;;14.43;64.00
50682;BME280;36779;52.168;20.878;2023-05-25T06:28:16;100999.89;;;14.43;64.06
50682;BME280;36779;52.168;20.878;2023-05-25T06:30:46;100997.39;;;14.42;63.91
50682;BME280;36779;52.168;20.878;2023-05-25T06:33:16;100998.80;;;14.40;64.17
50682;BME280;36779;52.168;20.878;2023-05-25T06:35:45;100997.96;;;14.41;63.91
50682;BME280;36779;52.168;20.878;2023-05-25T06:38:16;100999.59;;;14.44;63.98
50682;BME280;36779;52.168;20.878;2023-05-25T06:40:45;101002.23;;;14.49;64.17
50682;BME280;36779;52.168;20.878;2023-05-25T06:43:15;101003.85;;;14.51;63.94
50682;BME280;36779;52.168;20.878;2023-05-25T06:45:55;101000.98;;;14.49;63.83
50682;BME280;36779;52.168;20.878;2023-05-25T06:48:26;101002.83;;;14.52;63.93
50682;BME280;36779;52.168;20.878;2023-05-25T06:50:56;101005.91;;;14.56;64.10
50682;BME280;36779;52.168;20.878;2023-05-25T06:53:29;101002.22;;;14.59;64.02
50682;BME280;36779;52.168;20.878;2023-05-25T06:55:59;101007.04;;;14.62;64.16
50682;BME280;36779;52.168;20.878;2023-05-25T06:58:30;101007.89;;;14.60;63.98
50682;BME280;36779;52.168;20.878;2023-05-25T07:01:00;101009.95;;;14.57;63.78
50682;BME280;36779;52.168;20.878;2023-05-25T07:03:33;101005.09;;;14.62;63.96
50682;BME280;36779;52.168;20.878;2023-05-25T07:06:07;101005.42;;;14.62;63.94
50682;BME280;36779;52.168;20.878;2023-05-25T07:08:37;101004.95;;;14.64;63.87
50682;BME280;36779;52.168;20.878;2023-05-25T07:11:07;101003.13;;;14.67;64.05
50682;BME280;36779;52.168;20.878;2023-05-25T07:13:37;101005.37;;;14.69;63.76
50682;BME280;36779;52.168;20.878;2023-05-25T07:16:07;101006.33;;;14.72;63.79
50682;BME280;36779;52.168;20.878;2023-05-25T07:18:39;101005.57;;;14.70;63.78
50682;BME280;36779;52.168;20.878;2023-05-25T07:21:10;101003.17;;;14.71;63.99
50682;BME280;36779;52.168;20.878;2023-05-25T07:23:42;101001.96;;;14.72;64.04
50682;BME280;36779;52.168;20.878;2023-05-25T07:26:13;101002.30;;;14.79;64.05
50682;BME280;36779;52.168;20.878;2023-05-25T07:28:45;101005.73;;;14.85;63.91
50682;BME280;36779;52.168;20.878;2023-05-25T07:31:14;101004.42;;;14.85;64.03
50682;BME280;36779;52.168;20.878;2023-05-25T07:33:44;101002.69;;;14.87;63.96
50682;BME280;36779;52.168;20.878;2023-05-25T07:36:14;101002.20;;;14.89;64.15
50682;BME280;36779;52.168;20.878;2023-05-25T07:38:42;101000.20;;;15.02;64.19
50682;BME280;36779;52.168;20.878;2023-05-25T07:41:11;101002.53;;;15.14;64.15
50682;BME280;36779;52.168;20.878;2023-05-25T07:43:40;101003.24;;;15.24;64.25
50682;BME280;36779;52.168;20.878;2023-05-25T07:46:09;101001.02;;;15.30;64.15
50682;BME280;36779;52.168;20.878;2023-05-25T07:48:38;100998.11;;;15.43;64.32
50682;BME280;36779;52.168;20.878;2023-05-25T07:51:10;101002.09;;;15.55;64.15
50682;BME280;36779;52.168;20.878;2023-05-25T07:53:38;101003.47;;;15.59;64.07
50682;BME280;36779;52.168;20.878;2023-05-25T07:56:10;101001.66;;;15.62;64.18
50682;BME280;36779;52.168;20.878;2023-05-25T07:58:39;101000.09;;;15.66;64.02
50682;BME280;36779;52.168;20.878;2023-05-25T08:01:08;101001.17;;;15.74;64.04
50682;BME280;36779;52.168;20.878;2023-05-25T08:03:37;101003.08;;;15.77;63.88
50682;BME280;36779;52.168;20.878;2023-05-25T08:06:17;101003.25;;;15.85;64.16
50682;BME280;36779;52.168;20.878;2023-05-25T08:08:48;101004.50;;;15.95;64.10
50682;BME280;36779;52.168;20.878;2023-05-25T08:11:24;101005.86;;;16.06;64.03
50682;BME280;36779;52.168;20.878;2023-05-25T08:13:54;101004.48;;;16.13;64.20
50682;BME280;36779;52.168;20.878;2023-05-25T08:16:23;101009.86;;;16.18;64.13
50682;BME280;36779;52.168;20.878;2023-05-25T08:18:55;101008.52;;;16.25;64.07
50682;BME280;36779;52.168;20.878;2023-05-25T08:21:26;101007.54;;;16.32;63.95
50682;BME280;36779;52.168;20.878;2023-05-25T08:23:55;101008.21;;;16.38;63.86
50682;BME280;36779;52.168;20.878;2023-05-25T08:26:26;101001.15;;;16.43;63.84
50682;BME280;36779;52.168;20.878;2023-05-25T08:29:15;101001.06;;;16.45;63.67
50682;BME280;36779;52.168;20.878;2023-05-25T08:31:46;101003.39;;;16.51;63.72
50682;BME280;36779;52.168;20.878;2023-05-25T08:34:16;101006.59;;;16.59;63.69
50682;BME280;36779;52.168;20.878;2023-05-25T08:36:46;101007.98;;;16.66;63.84
50682;BME280;36779;52.168;20.878;2023-05-25T08:39:16;101004.19;;;16.76;63.70
50682;BME280;36779;52.168;20.878;2023-05-25T08:41:46;101004.58;;;16.83;63.67
50682;BME280;36779;52.168;20.878;2023-05-25T08:44:15;101002.80;;;16.90;63.61
50682;BME280;36779;52.168;20.878;2023-05-25T08:46:46;101006.46;;;16.92;63.62
50682;BME280;36779;52.168;20.878;2023-05-25T08:49:16;101009.55;;;16.95;63.50
50682;BME280;36779;52.168;20.878;2023-05-25T08:51:48;101011.11;;;17.03;63.56
50682;BME280;36779;52.168;20.878;2023-05-25T08:54:19;101015.30;;;17.10;63.47
50682;BME280;36779;52.168;20.878;2023-05-25T08:56:54;101015.39;;;17.10;63.18
50682;BME280;36779;52.168;20.878;2023-05-25T08:59:33;101014.61;;;17.01;63.08
50682;BME280;36779;52.168;20.878;2023-05-25T09:02:17;101012.08;;;17.01;63.23
50682;BME280;36779;52.168;20.878;2023-05-25T09:04:49;101011.39;;;16.98;62.99
50682;BME280;36779;52.168;20.878;2023-05-25T09:07:19;101012.98;;;16.93;62.93
50682;BME280;36779;52.168;20.878;2023-05-25T09:09:48;101011.06;;;16.99;63.09
50682;BME280;36779;52.168;20.878;2023-05-25T09:12:22;101016.39;;;17.05;63.20
50682;BME280;36779;52.168;20.878;2023-05-25T09:14:53;101018.90;;;17.12;63.02
50682;BME280;36779;52.168;20.878;2023-05-25T09:17:25;101016.20;;;17.15;63.05
50682;BME280;36779;52.168;20.878;2023-05-25T09:19:54;101017.53;;;17.16;62.95
50682;BME280;36779;52.168;20.878;2023-05-25T09:22:24;101016.77;;;17.19;63.06
50682;BME280;36779;52.168;20.878;2023-05-25T09:24:54;101017.49;;;17.25;63.12
50682;BME280;36779;52.168;20.878;2023-05-25T09:27:25;101020.02;;;17.32;63.00
50682;BME280;36779;52.168;20.878;2023-05-25T09:29:55;101020.48;;;17.38;62.90
50682;BME280;36779;52.168;20.878;2023-05-25T09:32:27;101023.16;;;17.43;62.96
50682;BME280;36779;52.168;20.878;2023-05-25T09:35:06;101021.41;;;17.50;63.00
50682;BME280;36779;52.168;20.878;2023-05-25T09:37:36;101021.63;;;17.59;63.01
50682;BME280;36779;52.168;20.878;2023-05-25T09:40:09;101019.40;;;17.70;63.01
50682;BME280;36779;52.168;20.878;2023-05-25T09:42:38;101014.52;;;17.71;62.74
50682;BME280;36779;52.168;20.878;2023-05-25T09:45:09;101018.80;;;17.69;62.81
50682;BME280;36779;52.168;20.878;2023-05-25T09:47:39;101020.19;;;17.77;62.95
50682;BME280;36779;52.168;20.878;2023-05-25T09:50:11;101016.77;;;17.88;62.93
50682;BME280;36779;52.168;20.878;2023-05-25T09:52:40;101016.83;;;18.00;63.02
50682;BME280;36779;52.168;20.878;2023-05-25T09:55:11;101017.30;;;18.17;63.16
50682;BME280;36779;52.168;20.878;2023-05-25T09:57:40;101013.50;;;18.35;63.21
50682;BME280;36779;52.168;20.878;2023-05-25T10:00:13;101015.62;;;18.63;63.39
50682;BME280;36779;52.168;20.878;2023-05-25T10:02:42;101015.50;;;19.07;63.67
50682;BME280;36779;52.168;20.878;2023-05-25T10:05:11;101016.81;;;19.46;63.49
50682;BME280;36779;52.168;20.878;2023-05-25T10:07:41;101019.13;;;19.71;63.27
50682;BME280;36779;52.168;20.878;2023-05-25T10:10:14;101014.96;;;20.10;63.45
50682;BME280;36779;52.168;20.878;2023-05-25T10:12:44;101009.36;;;20.48;63.29
50682;BME280;36779;52.168;20.878;2023-05-25T10:15:13;101014.04;;;20.93;63.27
50682;BME280;36779;52.168;20.878;2023-05-25T10:17:47;101011.87;;;21.29;62.90
50682;BME280;36779;52.168;20.878;2023-05-25T10:20:20;101011.64;;;21.75;63.02
50682;BME280;36779;52.168;20.878;2023-05-25T10:23:00;101008.98;;;22.24;62.74
50682;BME280;36779;52.168;20.878;2023-05-25T10:25:38;101001.60;;;22.70;62.54
50682;BME280;36779;52.168;20.878;2023-05-25T10:28:11;100995.45;;;23.11;62.15
50682;BME280;36779;52.168;20.878;2023-05-25T10:30:42;100994.20;;;23.44;61.99
50682;BME280;36779;52.168;20.878;2023-05-25T10:33:12;100988.80;;;23.74;61.40
50682;BME280;36779;52.168;20.878;2023-05-25T10:35:43;100995.02;;;23.95;61.09
50682;BME280;36779;52.168;20.878;2023-05-25T10:38:32;100994.73;;;24.17;60.54
50682;BME280;36779;52.168;20.878;2023-05-25T10:41:04;100993.02;;;24.33;60.50
50682;BME280;36779;52.168;20.878;2023-05-25T10:43:33;100986.56;;;24.56;60.26
50682;BME280;36779;52.168;20.878;2023-05-25T10:46:04;100986.60;;;24.74;60.02
50682;BME280;36779;52.168;20.878;2023-05-25T10:48:36;100983.91;;;24.92;59.68
50682;BME280;36779;52.168;20.878;2023-05-25T10:51:05;100983.42;;;25.12;59.25
50682;BME280;36779;52.168;20.878;2023-05-25T10:53:37;100978.16;;;25.24;59.23
50682;BME280;36779;52.168;20.878;2023-05-25T10:56:08;100983.40;;;25.49;59.07
50682;BME280;36779;52.168;20.878;2023-05-25T10:58:41;100983.69;;;25.65;58.72
50682;BME280;36779;52.168;20.878;2023-05-25T11:01:12;100984.77;;;25.72;58.36
50682;BME280;36779;52.168;20.878;2023-05-25T11:03:50;100985.36;;;25.74;57.99
50682;BME280;36779;52.168;20.878;2023-05-25T11:06:22;100985.70;;;25.84;58.14
50682;BME280;36779;52.168;20.878;2023-05-25T11:09:25;100984.39;;;26.13;58.17
50682;BME280;36779;52.168;20.878;2023-05-25T11:12:01;100980.51;;;26.40;57.85
50682;BME280;36779;52.168;20.878;2023-05-25T11:14:32;100983.70;;;26.51;57.65
50682;BME280;36779;52.168;20.878;2023-05-25T11:17:05;100983.44;;;26.61;57.42
50682;BME280;36779;52.168;20.878;2023-05-25T11:19:45;100981.35;;;26.68;57.03
50682;BME280;36779;52.168;20.878;2023-05-25T11:22:19;100975.11;;;26.73;57.06
50682;BME280;36779;52.168;20.878;2023-05-25T11:24:49;100972.73;;;26.76;56.65
50682;BME280;36779;52.168;20.878;2023-05-25T11:27:26;100968.20;;;26.70;56.37
50682;BME280;36779;52.168;20.878;2023-05-25T11:29:57;100965.55;;;26.74;56.43
50682;BME280;36779;52.168;20.878;2023-05-25T11:32:28;100965.84;;;26.85;56.35
50682;BME280;36779;52.168;20.878;2023-05-25T11:34:57;100966.16;;;26.84;55.59
50682;BME280;36779;52.168;20.878;2023-05-25T11:37:27;100966.67;;;26.86;55.70
50682;BME280;36779;52.168;20.878;2023-05-25T11:39:59;100967.02;;;26.87;54.99
50682;BME280;36779;52.168;20.878;2023-05-25T11:42:28;100965.41;;;26.76;55.07
50682;BME280;36779;52.168;20.878;2023-05-25T11:45:04;100962.89;;;26.84;55.19
50682;BME280;36779;52.168;20.878;2023-05-25T11:47:34;100962.66;;;26.99;54.98
50682;BME280;36779;52.168;20.878;2023-05-25T11:50:14;100962.02;;;26.90;54.15
50682;BME280;36779;52.168;20.878;2023-05-25T11:52:44;100954.58;;;26.61;53.76
50682;BME280;36779;52.168;20.878;2023-05-25T11:55:13;100957.04;;;26.53;54.17
50682;BME280;36779;52.168;20.878;2023-05-25T11:57:42;100954.41;;;26.67;54.23
50682;BME280;36779;52.168;20.878;2023-05-25T12:00:22;100957.77;;;26.77;54.16
50682;BME280;36779;52.168;20.878;2023-05-25T12:02:52;100954.38;;;26.69;53.97
50682;BME280;36779;52.168;20.878;2023-05-25T12:05:22;100955.54;;;26.74;54.03
50682;BME280;36779;52.168;20.878;2023-05-25T12:07:53;100950.79;;;26.84;53.95
50682;BME280;36779;52.168;20.878;2023-05-25T12:10:22;100949.39;;;26.91;53.72
50682;BME280;36779;52.168;20.878;2023-05-25T12:12:52;100948.86;;;26.94;53.58
50682;BME280;36779;52.168;20.878;2023-05-25T12:15:25;100947.61;;;26.98;53.48
50682;BME280;36779;52.168;20.878;2023-05-25T12:17:56;100939.63;;;27.05;53.57
50682;BME280;36779;52.168;20.878;2023-05-25T12:20:25;100942.35;;;27.04;53.05
50682;BME280;36779;52.168;20.878;2023-05-25T12:22:55;100945.80;;;26.93;52.98
50682;BME280;36779;52.168;20.878;2023-05-25T12:25:26;100942.64;;;26.94;53.08
50682;BME280;36779;52.168;20.878;2023-05-25T12:28:13;100940.98;;;26.97;53.04
50682;BME280;36779;52.168;20.878;2023-05-25T12:30:42;100940.90;;;27.06;53.00
50682;BME280;36779;52.168;20.878;2023-05-25T12:33:12;100941.67;;;27.08;52.86
50682;BME280;36779;52.168;20.878;2023-05-25T12:35:46;100939.66;;;26.93;52.39
50682;BME280;36779;52.168;20.878;2023-05-25T12:38:17;100933.34;;;26.74;52.30
50682;BME280;36779;52.168;20.878;2023-05-25T12:40:46;100930.20;;;26.66;52.42
50682;BME280;36779;52.168;20.878;2023-05-25T12:43:15;100930.42;;;26.59;52.29
50682;BME280;36779;52.168;20.878;2023-05-25T12:45:44;100922.89;;;26.50;52.25
50682;BME280;36779;52.168;20.878;2023-05-25T12:48:13;100917.76;;;26.40;52.04
50682;BME280;36779;52.168;20.878;2023-05-25T12:50:57;100915.90;;;26.40;52.42
50682;BME280;36779;52.168;20.878;2023-05-25T12:53:26;100913.46;;;26.42;52.21
50682;BME280;36779;52.168;20.878;2023-05-25T12:56:05;100908.40;;;26.47;52.50
50682;BME280;36779;52.168;20.878;2023-05-25T12:58:39;100901.80;;;26.56;52.48
50682;BME280;36779;52.168;20.878;2023-05-25T13:01:09;100901.65;;;26.63;52.37
50682;BME280;36779;52.168;20.878;2023-05-25T13:03:39;100899.13;;;26.67;52.41
50682;BME280;36779;52.168;20.878;2023-05-25T13:06:08;100903.13;;;26.73;52.31